Aeroporto :
LOGIN :

Iscrizione | Disclaimer

   EN    FR    IT 

 










Sommario :    VFR   VFR Marginale   IFR   IFR Intensivo   IFR Molto Intensivo
Visibilità : 
Base nubi : 
>= 8 km
>= 3000ft
5 / 8 km
1000 / 3000 ft
1500m / 5 km
500 / 1000 ft
800 / 1500m
200 / 500 ft
< 800m
< 200 ft
Simboli :   Temporali  Nebbia  Neve Forte  Precipitazioni Forti  Vento > 20 kt
SIGMETs :   Varie  Temporali  Ghiacco  Turbolenza  Onda orograficha  Ceneri Vulcaniche






- Altitudine del aeroporto : 436 ft
- Codice IATA : ANG


LFBU - Angoulême Brie Champniers

ULTIMO METAR :
  • 260200Z AUTO 14002KT 9999 OVC033 08/05 Q1017

METARs OBSOLETI :
  • 260130Z AUTO 14001KT 9999 BKN033 BKN040 OVC100 08/05 Q1017
  • 260100Z AUTO VRB01KT 9999 BKN033 OVC041 07/05 Q1017
  • 260030Z AUTO 12002KT 9999 BKN038 BKN098 OVC160 07/04 Q1017
  • 260000Z AUTO 13002KT 9999 BKN040 BKN100 08/05 Q1017
  • 252330Z AUTO VRB02KT 9999 SCT042 OVC100 08/05 Q1017

TAF TAF LFBU
Valido dal 25 a 18 ore il 26 a 18 ore UTC


251700Z 2518/2618 16004KT CAVOK
TEMPO 2600/2606 4000 -RA BKN010 BKN020
TEMPO 2606/2612 BKN010
BECMG 2608/2610 22010KT



MetMap, La meteo Aeronautica in un colpo d'occhio ! - Copyright ORBIFLY Dicembre 2007 - Disclaimer

ORBIFLY MET'MAP TEAM :

Programmazione e sviluppo : Alexandra Zaïnal
Concezione : Baudouin d'Aumeries
Aiuto per la programmazione : Marc-Olivier Méhu
Supporto tecnico e logistico : Manuel Goepfert
Aiuto per la traduzione : Arnaldo La Scala

Contatto : metmap@orbifly.com




FONTI E CREDITI :

   NOAA